Little, Indiana
Current Conditions -  °F | °C
As of 6:55 PM on Saturday 22 Nov 2014 (Local Time) from KDCY Reporting Station
Scattered Clouds Scattered Clouds  
Wind Chill: 51°   Ceiling: Unl
Heat Index: 51°   Visibility: 10mi
Dew Point: 42°   Wind: 9mph
Humidity: 72%   Direction: 180°S
Pressure: 30.02"   Gusts: NA
Location:  38.4723°N, 87.3105°W
Report Text: KDCY 230055Z AUTO 18008KT 10SM SCT085 11/06 A3002 RMK AO2 T01050056
Loading
Personal Weather Stations






























Interactive Weather Map New forecast layout! Learn more

10-Day Weather Forecast

Advertisements
Track Severe Weather on mobile